Time;durP1;ratioP1;P1;durP2;ratioP2;P2;SDS_P1;SDS_P2;PMS_P1;PMS_P2;Temp;Humidity;BMP_temperature;BMP_pressure;BME280_temperature;BME280_humidity;BME280_pressure;Samples;Min_cycle;Max_cycle;Signal;HPM_P1;HPM_P2
2022/06/18 00:00:19;;;;;;;1999.90;999.90;;;25.20;99.90;;;;;;4994621;28;20219;-77
2022/06/18 00:02:46;;;;;;;1999.90;999.90;;;25.20;99.90;;;;;;4993982;28;20656;-77
2022/06/18 00:05:14;;;;;;;1999.90;999.90;;;25.20;99.90;;;;;;5010637;28;20190;-77
2022/06/18 00:07:44;;;;;;;1999.90;999.90;;;25.20;99.90;;;;;;5011207;28;20636;-77
2022/06/18 00:10:15;;;;;;;1999.90;999.90;;;25.10;99.90;;;;;;5020799;28;20660;-77
2022/06/18 00:15:30;;;;;;;1999.90;999.90;;;25.20;99.90;;;;;;4994241;28;20576;-77
2022/06/18 00:17:56;;;;;;;1999.90;999.90;;;25.30;99.90;;;;;;5010060;28;20546;-77
2022/06/18 00:20:25;;;;;;;1999.90;999.90;;;25.30;99.90;;;;;;4960155;28;20708;-77
2022/06/18 00:22:57;;;;;;;1999.90;999.90;;;25.20;99.90;;;;;;5007978;28;20192;-77
2022/06/18 00:25:26;;;;;;;1999.90;999.90;;;25.30;99.90;;;;;;5009569;28;20199;-77
2022/06/18 00:27:51;;;;;;;1999.90;999.90;;;25.20;99.90;;;;;;4996402;28;20206;-77
2022/06/18 00:30:20;;;;;;;1999.90;999.90;;;25.20;99.90;;;;;;5011536;28;20637;-77
2022/06/18 00:32:47;;;;;;;1999.90;999.90;;;25.10;99.90;;;;;;4994635;28;20262;-77
2022/06/18 00:35:14;;;;;;;1999.90;999.90;;;25.20;99.90;;;;;;4982998;28;20590;-77
2022/06/18 00:37:40;;;;;;;1374.13;833.28;;;25.10;99.90;;;;;;4979721;28;20184;-78
2022/06/18 00:40:19;;;;;;;1077.50;764.47;;;25.00;99.90;;;;;;5007261;28;20219;-77
2022/06/18 00:42:45;;;;;;;1041.57;731.40;;;25.00;99.90;;;;;;4999339;28;20191;-77
2022/06/18 00:45:17;;;;;;;911.20;813.47;;;25.00;99.90;;;;;;4996206;28;20648;-77
2022/06/18 00:48:18;;;;;;;1999.90;999.90;;;24.90;99.90;;;;;;5006595;28;20185;-77
2022/06/18 00:50:48;;;;;;;1999.90;999.90;;;25.00;99.90;;;;;;4985659;28;20689;-77
2022/06/18 00:53:21;;;;;;;1712.88;939.78;;;24.80;99.90;;;;;;4989796;28;20304;-77
2022/06/18 00:56:04;;;;;;;1999.90;999.90;;;24.80;99.90;;;;;;5013485;28;20283;-77
2022/06/18 00:58:54;;;;;;;1999.90;999.90;;;24.80;99.90;;;;;;5000330;28;20188;-77
2022/06/18 01:01:29;;;;;;;1200.93;876.30;;;24.70;99.90;;;;;;5007490;28;20231;-77
2022/06/18 01:03:55;;;;;;;904.83;808.03;;;24.70;99.90;;;;;;5012435;28;20182;-77
2022/06/18 01:06:39;;;;;;;1435.80;889.22;;;24.60;99.90;;;;;;4997631;28;20191;-77
2022/06/18 01:09:10;;;;;;;1499.93;948.20;;;24.50;99.90;;;;;;4967741;28;20187;-77
2022/06/18 01:11:38;;;;;;;1480.30;929.90;;;24.50;99.90;;;;;;5009969;28;20210;-77
2022/06/18 01:14:06;;;;;;;1519.78;965.60;;;24.50;99.90;;;;;;5010391;28;20250;-76
2022/06/18 01:16:33;;;;;;;1012.58;907.30;;;24.50;99.90;;;;;;5011467;28;20197;-76
2022/06/18 01:19:00;;;;;;;1053.93;947.03;;;24.40;99.90;;;;;;5011672;28;20183;-76
2022/06/18 01:21:44;;;;;;;1316.80;984.13;;;24.40;99.90;;;;;;5011658;28;20283;-76
2022/06/18 01:24:10;;;;;;;1189.63;999.90;;;24.50;99.90;;;;;;5011257;28;20262;-77
2022/06/18 01:26:36;;;;;;;1383.88;999.90;;;24.50;99.90;;;;;;5001397;28;20949;-77
2022/06/18 01:29:02;;;;;;;1148.22;999.90;;;24.50;99.90;;;;;;4993219;28;20196;-77
2022/06/18 01:31:28;;;;;;;1567.50;999.90;;;24.40;99.90;;;;;;5008862;28;20195;-77
2022/06/18 01:33:54;;;;;;;1166.18;999.90;;;24.30;99.90;;;;;;4996525;28;20187;-77
2022/06/18 01:36:20;;;;;;;1170.05;999.90;;;24.30;99.90;;;;;;5010091;28;20271;-78
2022/06/18 01:38:46;;;;;;;1154.35;999.90;;;24.40;99.90;;;;;;4993088;28;20544;-77
2022/06/18 01:44:10;;;;;;;1207.90;999.90;;;24.50;99.90;;;;;;5003620;28;20190;-76
2022/06/18 01:46:41;;;;;;;1202.97;999.90;;;24.40;99.90;;;;;;5006800;28;20191;-77
2022/06/18 01:49:11;;;;;;;1188.47;999.90;;;24.30;99.90;;;;;;5013003;28;20179;-77
2022/06/18 01:51:40;;;;;;;1213.28;999.90;;;24.30;99.90;;;;;;5004415;28;20660;-76
2022/06/18 01:54:18;;;;;;;1224.45;999.90;;;24.20;99.90;;;;;;4981218;28;20723;-76
2022/06/18 01:56:48;;;;;;;1154.35;999.90;;;24.10;99.90;;;;;;5015280;28;20261;-76
2022/06/18 01:59:25;;;;;;;1117.00;999.90;;;24.10;99.90;;;;;;4997649;28;20242;-77
2022/06/18 02:01:51;;;;;;;1092.60;986.28;;;24.10;99.90;;;;;;5007538;28;20233;-77
2022/06/18 02:04:20;;;;;;;1141.65;999.90;;;24.00;99.90;;;;;;5005245;28;20192;-77
2022/06/18 02:06:48;;;;;;;1116.55;999.90;;;24.10;99.90;;;;;;5005269;28;20187;-76
2022/06/18 02:09:30;;;;;;;1585.30;999.90;;;24.10;99.90;;;;;;5006823;28;20200;-76
2022/06/18 02:12:00;;;;;;;1186.93;999.90;;;24.10;99.90;;;;;;4995697;28;20222;-76
2022/06/18 02:14:27;;;;;;;1180.78;999.90;;;24.10;99.90;;;;;;4995489;28;20267;-76
2022/06/18 02:16:55;;;;;;;1151.53;999.90;;;24.00;99.90;;;;;;5005559;28;20218;-77
2022/06/18 02:19:21;;;;;;;1415.68;999.90;;;24.00;99.90;;;;;;5021446;28;20187;-76
2022/06/18 02:21:52;;;;;;;1206.95;999.90;;;24.00;99.90;;;;;;4989303;28;20285;-76
2022/06/18 02:24:18;;;;;;;1236.53;999.90;;;23.90;99.90;;;;;;5003299;28;20188;-76
2022/06/18 02:26:47;;;;;;;1185.38;999.90;;;23.90;99.90;;;;;;5007140;28;20595;-76
2022/06/18 02:29:19;;;;;;;1218.70;999.90;;;23.90;99.90;;;;;;4985899;28;20662;-76
2022/06/18 02:31:45;;;;;;;1208.53;999.90;;;23.80;99.90;;;;;;5013684;28;20525;-76
2022/06/18 02:34:16;;;;;;;1218.55;999.90;;;23.80;99.90;;;;;;4988130;28;20190;-76
2022/06/18 02:36:42;;;;;;;1239.43;999.90;;;23.70;99.90;;;;;;4992774;28;20184;-76
2022/06/18 02:39:07;;;;;;;1223.35;999.90;;;23.70;99.90;;;;;;4982929;28;20186;-76
2022/06/18 02:41:35;;;;;;;1224.63;999.90;;;23.70;99.90;;;;;;5007303;28;20684;-76
2022/06/18 02:44:01;;;;;;;1204.00;999.90;;;23.60;99.90;;;;;;4993224;28;21506;-76
2022/06/18 02:46:27;;;;;;;1216.88;999.90;;;23.60;99.90;;;;;;4977466;28;20213;-76
2022/06/18 02:48:53;;;;;;;1184.50;999.90;;;23.60;99.90;;;;;;4984426;28;20661;-77
2022/06/18 02:51:19;;;;;;;1201.03;999.90;;;23.60;99.90;;;;;;5007647;28;20184;-76
2022/06/18 02:53:45;;;;;;;1209.43;999.90;;;23.50;99.90;;;;;;5007637;28;20602;-76
2022/06/18 02:56:14;;;;;;;1222.82;999.90;;;23.50;99.90;;;;;;4992790;28;20553;-76
2022/06/18 02:58:45;;;;;;;1215.28;999.90;;;23.40;99.90;;;;;;5011442;28;20182;-76
2022/06/18 03:01:15;;;;;;;1216.00;999.90;;;23.40;99.90;;;;;;5011093;28;20230;-77
2022/06/18 03:03:43;;;;;;;1214.47;999.90;;;23.30;99.90;;;;;;5004474;28;20233;-76
2022/06/18 03:06:10;;;;;;;1209.40;999.90;;;23.30;99.90;;;;;;4997417;28;20200;-77
2022/06/18 03:08:37;;;;;;;1215.03;999.90;;;23.30;99.90;;;;;;4984642;28;20261;-76
2022/06/18 03:13:49;;;;;;;1195.28;999.90;;;23.20;99.90;;;;;;5005321;28;20198;-76
2022/06/18 03:16:18;;;;;;;1206.63;999.90;;;23.00;99.90;;;;;;4999135;28;20192;-76
2022/06/18 03:18:47;;;;;;;1170.78;999.90;;;23.00;99.90;;;;;;5007304;28;20270;-76
2022/06/18 03:21:15;;;;;;;1199.75;999.90;;;23.10;99.90;;;;;;4994368;28;20265;-76
2022/06/18 03:23:42;;;;;;;1200.28;999.90;;;23.20;99.90;;;;;;5006945;28;20194;-76
2022/06/18 03:26:07;;;;;;;1184.80;999.90;;;23.00;99.90;;;;;;4994227;28;20278;-76
2022/06/18 03:28:33;;;;;;;1183.75;999.90;;;22.90;99.90;;;;;;4994707;28;20294;-76
2022/06/18 03:30:59;;;;;;;1185.13;999.90;;;22.80;99.90;;;;;;4982847;28;20184;-76
2022/06/18 03:33:25;;;;;;;1148.28;999.90;;;22.90;99.90;;;;;;4995767;28;20564;-76
2022/06/18 03:35:52;;;;;;;1166.28;999.90;;;22.90;99.90;;;;;;4994884;28;20245;-76
2022/06/18 03:38:19;;;;;;;1158.28;999.90;;;22.90;99.90;;;;;;5011682;28;21646;-76
2022/06/18 03:40:48;;;;;;;1181.10;999.90;;;22.90;99.90;;;;;;4986824;28;20227;-76
2022/06/18 03:43:13;;;;;;;1194.03;999.90;;;22.90;99.90;;;;;;4986685;28;20552;-76
2022/06/18 03:45:44;;;;;;;1150.57;999.90;;;22.90;99.90;;;;;;4978725;28;20209;-76
2022/06/18 03:48:36;;;;;;;1166.28;999.90;;;23.00;99.90;;;;;;5000752;28;20192;-77
2022/06/18 03:51:01;;;;;;;1168.60;999.90;;;23.00;99.90;;;;;;4987488;28;20597;-77
2022/06/18 03:53:27;;;;;;;1158.03;999.90;;;23.00;99.90;;;;;;5014557;28;20198;-77
2022/06/18 03:55:53;;;;;;;1167.95;999.90;;;23.00;99.90;;;;;;4985642;28;20191;-77
2022/06/18 03:58:18;;;;;;;1182.15;999.90;;;23.00;99.90;;;;;;4989076;28;20278;-76
2022/06/18 04:00:44;;;;;;;1160.05;999.90;;;23.10;99.90;;;;;;5016293;28;20219;-77
2022/06/18 04:03:10;;;;;;;1174.30;999.90;;;23.00;99.90;;;;;;5012202;28;20183;-77
2022/06/18 04:05:41;;;;;;;1165.93;999.90;;;23.00;99.90;;;;;;4986578;28;20243;-77
2022/06/18 04:08:07;;;;;;;1175.63;999.90;;;23.00;99.90;;;;;;4969657;28;20220;-77
2022/06/18 04:10:32;;;;;;;1164.68;999.90;;;23.00;99.90;;;;;;5008394;28;20224;-77
2022/06/18 04:12:58;;;;;;;1172.50;999.90;;;23.00;99.90;;;;;;5007152;28;20175;-77
2022/06/18 04:15:24;;;;;;;1170.32;999.90;;;23.10;99.90;;;;;;5009489;28;20202;-77
2022/06/18 04:17:50;;;;;;;1179.65;999.90;;;23.10;99.90;;;;;;5012107;28;20750;-77
2022/06/18 04:20:30;;;;;;;1171.68;999.90;;;23.20;99.90;;;;;;5001926;28;20261;-77
2022/06/18 04:22:56;;;;;;;1200.82;999.90;;;23.20;99.90;;;;;;5017922;28;20290;-77
2022/06/18 04:25:22;;;;;;;1184.15;999.90;;;23.40;99.90;;;;;;4997424;28;20270;-77
2022/06/18 04:27:49;;;;;;;1173.10;999.90;;;23.40;99.90;;;;;;4982052;28;20179;-77
2022/06/18 04:30:16;;;;;;;1164.30;999.90;;;23.50;99.90;;;;;;4985436;28;20633;-77
2022/06/18 04:32:41;;;;;;;1166.72;999.90;;;23.60;99.90;;;;;;4997430;28;20564;-77
2022/06/18 04:35:10;;;;;;;1171.10;999.90;;;23.70;99.90;;;;;;4981266;28;20241;-77
2022/06/18 04:37:36;;;;;;;1156.10;999.90;;;23.80;99.90;;;;;;5012685;28;20548;-78
2022/06/18 04:40:03;;;;;;;1148.32;999.90;;;23.90;99.90;;;;;;5019050;28;20261;-77
2022/06/18 04:42:32;;;;;;;1169.55;999.90;;;24.10;99.90;;;;;;5011975;28;20190;-78
2022/06/18 04:44:58;;;;;;;1162.18;999.90;;;24.30;99.90;;;;;;5024469;28;20190;-77
2022/06/18 04:47:24;;;;;;;1186.28;999.90;;;24.30;99.90;;;;;;5019360;28;20274;-78
2022/06/18 04:49:50;;;;;;;1359.75;999.90;;;24.50;99.90;;;;;;4997633;28;20266;-77
2022/06/18 04:52:16;;;;;;;1124.55;999.90;;;24.50;99.90;;;;;;5007624;28;20203;-77
2022/06/18 04:54:42;;;;;;;1122.10;999.90;;;24.60;99.90;;;;;;5001443;28;20294;-77
2022/06/18 04:57:08;;;;;;;1095.25;995.83;;;24.70;99.90;;;;;;5012833;28;20191;-77
2022/06/18 04:59:33;;;;;;;1110.25;999.90;;;24.70;99.90;;;;;;5015161;28;20226;-77
2022/06/18 05:02:13;;;;;;;1052.15;955.65;;;24.80;99.90;;;;;;4987664;28;20277;-77
2022/06/18 05:04:39;;;;;;;1518.05;970.15;;;24.90;99.90;;;;;;4980185;28;20625;-78
2022/06/18 05:07:05;;;;;;;1287.05;965.15;;;25.10;99.90;;;;;;4995035;28;20274;-77
2022/06/18 05:09:30;;;;;;;1314.60;990.45;;;25.20;99.90;;;;;;4980930;28;20659;-77
2022/06/18 05:11:56;;;;;;;945.60;855.53;;;25.40;99.90;;;;;;4979371;28;20262;-77
2022/06/18 05:14:25;;;;;;;985.65;892.90;;;25.50;99.90;;;;;;4985590;28;20593;-77
2022/06/18 05:16:51;;;;;;;967.95;877.15;;;25.50;99.90;;;;;;5005741;28;20196;-77
2022/06/18 05:19:23;;;;;;;1999.90;999.90;;;25.50;99.90;;;;;;4989107;28;20188;-78
2022/06/18 05:21:49;;;;;;;1018.42;921.65;;;25.70;99.90;;;;;;5021754;28;20246;-77
2022/06/18 05:24:14;;;;;;;1195.00;878.22;;;25.80;99.90;;;;;;5011727;28;20652;-77
2022/06/18 05:26:44;;;;;;;1999.90;999.90;;;25.90;99.90;;;;;;4978939;28;20641;-78
2022/06/18 05:29:10;;;;;;;1999.90;999.90;;;25.80;99.90;;;;;;5012808;28;20585;-77
2022/06/18 05:31:36;;;;;;;1999.90;999.90;;;25.80;99.90;;;;;;4992729;28;20196;-78
2022/06/18 05:34:03;;;;;;;1999.90;999.90;;;25.90;99.90;;;;;;4987693;28;20285;-78
2022/06/18 05:36:29;;;;;;;1999.90;999.90;;;26.00;99.90;;;;;;4994689;28;20225;-78
2022/06/18 05:38:57;;;;;;;1999.90;999.90;;;26.10;99.90;;;;;;5026667;28;20188;-78
2022/06/18 05:41:23;;;;;;;1999.90;999.90;;;26.30;99.90;;;;;;5031535;28;20210;-78
2022/06/18 05:43:49;;;;;;;1999.90;999.90;;;26.50;99.90;;;;;;5017040;28;20187;-78
2022/06/18 05:46:15;;;;;;;1999.90;999.90;;;26.80;99.90;;;;;;4991016;28;20188;-78
2022/06/18 05:48:41;;;;;;;1999.90;999.90;;;26.80;99.90;;;;;;5014087;28;20265;-78
2022/06/18 05:51:11;;;;;;;1999.90;999.90;;;27.00;99.90;;;;;;5005609;28;20186;-77
2022/06/18 05:53:37;;;;;;;1999.90;999.90;;;27.00;99.90;;;;;;5003922;28;20281;-77
2022/06/18 05:56:03;;;;;;;1999.90;999.90;;;27.10;99.90;;;;;;4989339;28;20274;-77
2022/06/18 05:58:28;;;;;;;1999.90;999.90;;;27.20;99.90;;;;;;5001983;28;20201;-77
2022/06/18 06:00:54;;;;;;;1999.90;999.90;;;27.20;99.90;;;;;;5016307;28;20242;-77
2022/06/18 06:03:20;;;;;;;1999.90;999.90;;;27.10;99.90;;;;;;4978357;28;20221;-77
2022/06/18 06:05:46;;;;;;;1999.90;999.90;;;27.30;99.90;;;;;;4987316;28;20274;-77
2022/06/18 06:08:13;;;;;;;1999.90;999.90;;;27.40;99.90;;;;;;5012855;28;20662;-77
2022/06/18 06:13:24;;;;;;;1999.90;999.90;;;27.90;99.90;;;;;;5025909;28;20197;-77
2022/06/18 06:15:50;;;;;;;1999.90;999.90;;;28.00;99.90;;;;;;5002606;28;20187;-77
2022/06/18 06:18:18;;;;;;;1999.90;999.90;;;28.10;99.90;;;;;;5015524;28;20183;-77
2022/06/18 06:20:46;;;;;;;1999.90;999.90;;;28.30;99.90;;;;;;5020592;28;20217;-77
2022/06/18 06:23:13;;;;;;;1999.90;999.90;;;28.50;99.90;;;;;;5008248;28;20189;-77
2022/06/18 06:25:41;;;;;;;1999.90;999.90;;;28.70;99.90;;;;;;4983290;28;20191;-77
2022/06/18 06:28:09;;;;;;;1999.90;999.90;;;28.70;99.90;;;;;;5001138;28;20604;-77
2022/06/18 06:30:38;;;;;;;1999.90;999.90;;;28.80;99.90;;;;;;5018342;28;20267;-77
2022/06/18 06:33:03;;;;;;;1999.90;999.90;;;29.00;99.90;;;;;;5021878;28;20241;-77
2022/06/18 06:35:29;;;;;;;1999.90;999.90;;;28.90;99.90;;;;;;5026122;28;20178;-77
2022/06/18 06:37:55;;;;;;;1999.90;999.90;;;29.10;99.90;;;;;;5005203;28;20213;-77
2022/06/18 06:40:21;;;;;;;1999.90;999.90;;;29.30;99.90;;;;;;5012748;28;20683;-77
2022/06/18 06:42:49;;;;;;;1999.90;999.90;;;29.60;99.90;;;;;;4994759;28;20560;-77
2022/06/18 06:45:18;;;;;;;1999.90;999.90;;;30.20;99.90;;;;;;5017378;28;20183;-77
2022/06/18 06:47:45;;;;;;;1999.90;999.90;;;30.90;99.90;;;;;;5000360;28;20210;-78
2022/06/18 06:50:13;;;;;;;1999.90;999.90;;;31.70;99.90;;;;;;4977913;28;20206;-78
2022/06/18 06:52:39;;;;;;;1999.90;999.90;;;32.60;99.90;;;;;;5026716;28;20198;-78
2022/06/18 06:57:56;;;;;;;1999.90;999.90;;;33.30;99.90;;;;;;5025960;28;20261;-78
2022/06/18 07:00:22;;;;;;;1999.90;999.90;;;33.70;99.90;;;;;;4993109;28;20670;-78
2022/06/18 07:02:48;;;;;;;1999.90;999.90;;;34.20;99.90;;;;;;4995203;28;20188;-78
2022/06/18 07:05:14;;;;;;;1999.90;999.90;;;34.70;99.90;;;;;;5031110;28;20595;-77
2022/06/18 07:07:40;;;;;;;1999.90;999.90;;;35.00;99.90;;;;;;5022482;28;20175;-79
2022/06/18 07:10:10;;;;;;;1999.90;999.90;;;35.40;99.90;;;;;;5022369;28;20636;-79
2022/06/18 07:12:37;;;;;;;1999.90;999.90;;;35.90;99.90;;;;;;5015997;28;20174;-78
2022/06/18 07:15:03;;;;;;;1999.90;999.90;;;36.20;99.90;;;;;;4992566;28;20214;-79
2022/06/18 07:17:29;;;;;;;1999.90;999.90;;;36.20;99.90;;;;;;5003846;28;20186;-75
2022/06/18 07:19:55;;;;;;;1999.90;999.90;;;36.40;99.90;;;;;;5014443;28;20241;-77
2022/06/18 07:22:20;;;;;;;1999.90;999.90;;;36.40;99.90;;;;;;5009228;28;20538;-80
2022/06/18 07:24:46;;;;;;;1999.90;999.90;;;36.70;99.90;;;;;;4987646;28;20612;-78
2022/06/18 07:27:12;;;;;;;1999.90;999.90;;;36.80;99.90;;;;;;4975579;28;20520;-76
2022/06/18 07:29:38;;;;;;;1999.90;999.90;;;37.10;99.90;;;;;;4990167;28;20190;-78
2022/06/18 07:32:10;;;;;;;1999.90;999.90;;;37.00;99.90;;;;;;4987705;28;20600;-80
2022/06/18 07:34:36;;;;;;;1999.90;999.90;;;36.90;99.90;;;;;;4997830;28;20778;-78
2022/06/18 07:37:02;;;;;;;1999.90;999.90;;;36.80;99.90;;;;;;5009895;28;20174;-78
2022/06/18 07:39:30;;;;;;;1999.90;999.90;;;36.90;99.90;;;;;;5012187;28;20662;-79
2022/06/18 07:41:56;;;;;;;1999.90;999.90;;;36.70;99.90;;;;;;5011603;28;20221;-78
2022/06/18 07:44:23;;;;;;;1999.90;999.90;;;36.90;99.90;;;;;;5010516;28;20265;-77
2022/06/18 07:46:51;;;;;;;1999.90;999.90;;;37.00;99.90;;;;;;4987923;28;20197;-76
2022/06/18 07:49:17;;;;;;;1999.90;999.90;;;37.60;99.90;;;;;;5011123;28;20187;-74
2022/06/18 07:51:43;;;;;;;1999.90;999.90;;;37.80;99.90;;;;;;4988373;28;20203;-75
2022/06/18 07:54:13;;;;;;;1999.90;999.90;;;37.80;99.60;;;;;;4982684;28;20187;-78
2022/06/18 07:56:39;;;;;;;1999.90;999.90;;;38.10;98.80;;;;;;5021841;28;20216;-76
2022/06/18 07:59:05;;;;;;;1999.90;999.90;;;38.20;98.30;;;;;;4992280;28;20636;-78
2022/06/18 08:01:30;;;;;;;1999.90;999.90;;;38.90;97.80;;;;;;4994446;28;20218;-80
2022/06/18 08:03:56;;;;;;;1999.90;999.90;;;38.60;98.00;;;;;;4999890;28;20194;-79
2022/06/18 08:06:22;;;;;;;1999.90;999.90;;;38.60;98.10;;;;;;5024289;28;20186;-79
2022/06/18 08:08:47;;;;;;;1999.90;999.90;;;38.90;97.50;;;;;;4994932;28;20193;-78
2022/06/18 08:11:15;;;;;;;1999.90;999.90;;;39.10;97.50;;;;;;4996424;28;20202;-80
2022/06/18 08:13:41;;;;;;;1999.90;999.90;;;38.90;97.50;;;;;;5014555;28;20204;-77
2022/06/18 08:16:08;;;;;;;1999.90;999.90;;;39.60;97.10;;;;;;5027483;28;20273;-78
2022/06/18 08:18:34;;;;;;;1999.90;999.90;;;39.40;97.70;;;;;;5027132;28;20190;-80
2022/06/18 08:21:05;;;;;;;1999.90;999.90;;;39.60;97.30;;;;;;5016625;28;20261;-79
2022/06/18 08:23:31;;;;;;;1999.90;999.90;;;39.60;96.50;;;;;;5006964;28;20190;-79
2022/06/18 08:25:57;;;;;;;1999.90;999.90;;;39.00;97.30;;;;;;5008361;28;20283;-82
2022/06/18 08:28:22;;;;;;;1999.90;999.90;;;38.40;97.70;;;;;;5011478;28;20290;-81
2022/06/18 08:30:48;;;;;;;1999.90;999.90;;;38.40;97.30;;;;;;4990036;28;20263;-81
2022/06/18 08:33:15;;;;;;;1999.90;999.90;;;38.00;96.70;;;;;;4988676;28;20602;-81
2022/06/18 08:35:41;;;;;;;1999.90;999.90;;;37.50;97.50;;;;;;5020060;28;20189;-81
2022/06/18 08:38:08;;;;;;;1999.90;999.90;;;37.10;97.50;;;;;;4993822;28;20182;-81
2022/06/18 08:40:37;;;;;;;1999.90;999.90;;;37.30;97.30;;;;;;4986061;28;20210;-81
2022/06/18 08:43:13;;;;;;;1999.90;999.90;;;37.90;97.20;;;;;;5003301;28;20194;-80
2022/06/18 08:45:56;;;;;;;1999.90;999.90;;;38.10;96.90;;;;;;5006970;28;20189;-82
2022/06/18 08:48:46;;;;;;;1999.90;999.90;;;38.70;96.80;;;;;;4997495;28;20191;-80
2022/06/18 08:51:36;;;;;;;1999.90;999.90;;;38.90;96.70;;;;;;5010683;28;20187;-81
2022/06/18 08:54:05;;;;;;;1999.90;999.90;;;38.80;97.00;;;;;;5014433;28;20277;-80
2022/06/18 08:56:37;;;;;;;1999.90;999.90;;;39.10;96.60;;;;;;5016259;28;20667;-81
2022/06/18 08:59:18;;;;;;;1999.90;999.90;;;39.30;97.10;;;;;;5015575;28;20236;-81
2022/06/18 09:01:52;;;;;;;1999.90;999.90;;;39.90;97.10;;;;;;4992998;28;20225;-78
2022/06/18 09:04:39;;;;;;;1999.90;999.90;;;40.30;96.70;;;;;;5007463;28;20183;-80
2022/06/18 09:07:24;;;;;;;1999.90;999.90;;;39.70;96.60;;;;;;5016417;28;20182;-80
2022/06/18 09:10:07;;;;;;;1999.90;999.90;;;39.60;96.50;;;;;;5016410;28;20762;-80
2022/06/18 09:12:40;;;;;;;1999.90;999.90;;;39.70;96.10;;;;;;5011562;28;20266;-77
2022/06/18 09:15:28;;;;;;;1999.90;999.90;;;39.60;95.60;;;;;;5024456;28;20203;-72
2022/06/18 09:18:25;;;;;;;1999.90;999.90;;;39.80;95.20;;;;;;5014033;28;20270;-82
2022/06/18 09:20:56;;;;;;;1999.90;999.90;;;39.80;95.40;;;;;;5010244;28;20215;-78
2022/06/18 09:23:26;;;;;;;1999.90;999.90;;;39.70;94.80;;;;;;4999143;28;20522;-80
2022/06/18 09:25:55;;;;;;;1999.90;999.90;;;39.30;94.40;;;;;;4995421;28;20266;-80
2022/06/18 09:28:26;;;;;;;1999.90;999.90;;;38.50;95.60;;;;;;4993455;28;20187;-78
2022/06/18 09:31:15;;;;;;;1999.90;999.90;;;38.20;94.50;;;;;;4996677;28;20206;-82
2022/06/18 09:33:53;;;;;;;1999.90;999.90;;;38.10;95.10;;;;;;5017465;28;20179;-76
2022/06/18 09:36:46;;;;;;;1999.90;999.90;;;37.70;95.70;;;;;;5007122;28;20249;-75
2022/06/18 09:39:20;;;;;;;1999.90;999.90;;;37.70;96.20;;;;;;5010223;28;20655;-80
2022/06/18 09:42:22;;;;;;;1999.90;999.90;;;36.70;96.80;;;;;;5012549;28;20206;-79
2022/06/18 09:44:57;;;;;;;1999.90;999.90;;;36.00;97.20;;;;;;5013057;28;20675;-76
2022/06/18 09:47:35;;;;;;;1999.90;999.90;;;35.80;97.00;;;;;;5016694;28;20218;-77
2022/06/18 09:50:02;;;;;;;1999.90;999.90;;;35.30;97.60;;;;;;5009732;28;20269;-76
2022/06/18 09:52:39;;;;;;;1999.90;999.90;;;34.90;98.20;;;;;;5000556;28;20202;-80
2022/06/18 09:55:32;;;;;;;1999.90;999.90;;;34.80;98.70;;;;;;5001756;28;20187;-79
2022/06/18 09:58:00;;;;;;;1999.90;999.90;;;34.80;98.20;;;;;;5007273;28;20651;-79
2022/06/18 10:00:30;;;;;;;1999.90;999.90;;;34.90;98.80;;;;;;4992788;28;20699;-78
2022/06/18 10:03:07;;;;;;;1999.90;999.90;;;34.90;98.70;;;;;;5013751;28;20183;-79
2022/06/18 10:08:35;;;;;;;1999.90;999.90;;;35.00;98.90;;;;;;5011478;28;20189;-78
2022/06/18 10:11:09;;;;;;;1999.90;999.90;;;35.10;98.80;;;;;;4984971;28;20191;-76
2022/06/18 10:13:45;;;;;;;1999.90;999.90;;;34.90;99.00;;;;;;5013113;28;20209;-78
2022/06/18 10:16:33;;;;;;;1999.90;999.90;;;34.50;99.50;;;;;;5010252;28;20189;-78
2022/06/18 10:19:31;;;;;;;1999.90;999.90;;;34.40;99.30;;;;;;5007675;28;20996;-80
2022/06/18 10:22:22;;;;;;;1999.90;999.90;;;34.40;98.70;;;;;;4973834;28;20378;-83
2022/06/18 10:25:07;;;;;;;1999.90;999.90;;;34.70;98.30;;;;;;5007167;28;20619;-80
2022/06/18 10:27:43;;;;;;;1999.90;999.90;;;34.60;99.60;;;;;;5000381;28;20196;-78
2022/06/18 10:30:15;;;;;;;1999.90;999.90;;;34.70;98.90;;;;;;4991159;28;20626;-81
2022/06/18 10:32:58;;;;;;;1999.90;999.90;;;34.60;98.80;;;;;;5003310;28;20183;-78
2022/06/18 10:35:42;;;;;;;1999.90;999.90;;;34.70;99.30;;;;;;5003608;28;20187;-79
2022/06/18 10:38:37;;;;;;;1999.90;999.90;;;34.80;99.30;;;;;;5021871;28;20186;-80
2022/06/18 10:41:16;;;;;;;1999.90;999.90;;;34.80;98.20;;;;;;4984726;28;20206;-79
2022/06/18 10:43:57;;;;;;;1999.90;999.90;;;34.80;98.90;;;;;;4994348;28;20594;-79
2022/06/18 10:46:23;;;;;;;1999.90;999.90;;;34.70;98.30;;;;;;5013322;28;20663;-78
2022/06/18 10:48:54;;;;;;;1999.90;999.90;;;34.80;98.50;;;;;;4979677;28;20218;-80
2022/06/18 10:51:24;;;;;;;1999.90;999.90;;;34.80;98.00;;;;;;5013143;28;20531;-80
2022/06/18 10:53:51;;;;;;;1999.90;999.90;;;34.60;98.60;;;;;;5010683;28;20644;-80
2022/06/18 10:56:23;;;;;;;1999.90;999.90;;;34.60;99.90;;;;;;5018262;28;20647;-79
2022/06/18 10:58:56;;;;;;;1999.90;999.90;;;34.70;98.30;;;;;;5013013;28;20187;-80
2022/06/18 11:01:46;;;;;;;1999.90;999.90;;;34.40;99.10;;;;;;4999894;28;20222;-80
2022/06/18 11:04:30;;;;;;;1999.90;999.90;;;34.40;98.90;;;;;;5019559;28;20183;-79
2022/06/18 11:06:59;;;;;;;1999.90;999.90;;;34.10;98.40;;;;;;5009681;28;20534;-77
2022/06/18 11:09:33;;;;;;;1999.90;999.90;;;34.10;99.80;;;;;;5014079;28;20644;-78
2022/06/18 11:12:02;;;;;;;1999.90;999.90;;;34.30;99.20;;;;;;4986624;28;20245;-79
2022/06/18 11:14:31;;;;;;;1999.90;999.90;;;34.10;98.90;;;;;;4994744;28;20185;-77
2022/06/18 11:16:58;;;;;;;1999.90;999.90;;;34.20;99.20;;;;;;5020702;28;20295;-72
2022/06/18 11:19:29;;;;;;;1999.90;999.90;;;34.30;99.00;;;;;;5012211;28;20697;-79
2022/06/18 11:21:55;;;;;;;1999.90;999.90;;;34.40;99.50;;;;;;5010506;28;20230;-78
2022/06/18 11:24:32;;;;;;;1999.90;999.90;;;34.60;99.90;;;;;;4990625;28;20190;-78
2022/06/18 11:27:00;;;;;;;1999.90;999.90;;;34.60;99.40;;;;;;4991480;28;20531;-81
2022/06/18 11:29:34;;;;;;;1999.90;999.90;;;34.60;99.30;;;;;;4981935;28;20569;-77
2022/06/18 11:32:12;;;;;;;1999.90;999.90;;;34.60;99.90;;;;;;4982155;28;20532;-79
2022/06/18 11:34:42;;;;;;;1999.90;999.90;;;34.50;98.70;;;;;;4990678;28;20304;-82
2022/06/18 11:37:24;;;;;;;1999.90;999.90;;;34.40;98.80;;;;;;5011957;28;20189;-81
2022/06/18 11:40:02;;;;;;;1999.90;999.90;;;34.40;99.40;;;;;;5003789;28;20549;-82
2022/06/18 11:42:37;;;;;;;1999.90;999.90;;;34.40;99.90;;;;;;5014976;28;20186;-82
2022/06/18 11:45:24;;;;;;;1999.90;999.90;;;34.40;99.90;;;;;;5003726;28;20270;-83
2022/06/18 11:48:03;;;;;;;1999.90;999.90;;;34.60;99.40;;;;;;5012533;28;20186;-82
2022/06/18 11:50:52;;;;;;;1999.90;999.90;;;34.50;99.90;;;;;;5011785;28;20186;-82
2022/06/18 11:53:24;;;;;;;1999.90;999.90;;;34.40;99.60;;;;;;5001314;28;20198;-82
2022/06/18 11:55:55;;;;;;;1999.90;999.90;;;34.50;99.90;;;;;;5012468;28;20540;-83
2022/06/18 11:58:38;;;;;;;1999.90;999.90;;;34.40;99.50;;;;;;5014987;28;20189;-82
2022/06/18 12:01:46;;;;;;;1999.90;999.90;;;34.50;99.90;;;;;;5001479;28;20225;-82
2022/06/18 12:04:28;;;;;;;1999.90;999.90;;;34.60;99.90;;;;;;5011485;28;20239;-82
2022/06/18 12:07:11;;;;;;;1999.90;999.90;;;34.60;99.90;;;;;;5017337;28;20182;-83
2022/06/18 12:09:40;;;;;;;1999.90;999.90;;;34.70;99.90;;;;;;5017040;28;20186;-82
2022/06/18 12:12:24;;;;;;;1999.90;999.90;;;34.70;99.90;;;;;;4965254;28;20183;-81
2022/06/18 12:15:06;;;;;;;1999.90;999.90;;;34.80;99.90;;;;;;5020782;28;20548;-82
2022/06/18 12:17:42;;;;;;;1999.90;999.90;;;35.00;99.90;;;;;;5012364;28;20265;-82
2022/06/18 12:20:38;;;;;;;1999.90;999.90;;;35.10;99.80;;;;;;5001179;28;20654;-82
2022/06/18 12:23:41;;;;;;;1999.90;999.90;;;34.90;99.90;;;;;;5006261;28;20234;-82
2022/06/18 12:26:41;;;;;;;1999.90;999.90;;;34.80;99.90;;;;;;4993450;28;20234;-82
2022/06/18 12:29:24;;;;;;;1999.90;999.90;;;34.60;99.90;;;;;;4999951;28;20209;-82
2022/06/18 12:32:25;;;;;;;1999.90;999.90;;;34.50;99.80;;;;;;4991126;28;20595;-83
2022/06/18 12:35:33;;;;;;;1999.90;999.90;;;34.60;99.90;;;;;;4922822;28;20210;-83